createdAt,value
2022-10-24T00:02:00.236Z,98972.22
2022-10-24T00:04:06.694Z,98975.72
2022-10-24T00:06:12.432Z,98976.03
2022-10-24T00:08:17.105Z,98970.03
2022-10-24T00:10:22.083Z,98976.19
2022-10-24T00:12:26.003Z,98970.03
2022-10-24T00:14:29.993Z,98973.66
2022-10-24T00:16:33.704Z,98970.19
2022-10-24T00:18:37.722Z,98974.81
2022-10-24T00:22:47.690Z,98970.66
2022-10-24T00:24:51.413Z,98969.94
2022-10-24T00:26:55.306Z,98978.88
2022-10-24T00:28:59.008Z,98973.88
2022-10-24T00:31:03.594Z,98973.38
2022-10-24T00:33:07.275Z,98980.47
2022-10-24T00:35:12.335Z,98974.50
2022-10-24T00:37:17.661Z,98980.78
2022-10-24T00:39:21.417Z,98985.13
2022-10-24T00:41:27.573Z,98984.97
2022-10-24T00:43:31.428Z,98991.94
2022-10-24T00:45:45.944Z,98986.47
2022-10-24T00:47:50.044Z,98989.13
2022-10-24T00:50:01.034Z,98988.13
2022-10-24T00:52:09.435Z,98988.97
2022-10-24T00:54:16.517Z,98990.50
2022-10-24T00:56:23.134Z,98989.50
2022-10-24T00:58:29.231Z,98994.69
2022-10-24T01:00:35.641Z,98993.81
2022-10-24T01:02:40.365Z,98990.34
2022-10-24T01:04:45.182Z,98988.66
2022-10-24T01:06:59.894Z,98994.97
2022-10-24T01:09:16.761Z,98984.50
2022-10-24T01:11:37.438Z,98987.47
2022-10-24T01:13:51.847Z,98986.75
2022-10-24T01:16:02.229Z,98981.75
2022-10-24T01:18:12.449Z,98986.56
2022-10-24T01:20:58.753Z,98984.34
2022-10-24T01:23:40.235Z,98988.97
2022-10-24T01:25:59.767Z,98989.09
2022-10-24T01:28:09.278Z,98992.59
2022-10-24T01:30:15.934Z,98987.44
2022-10-24T01:32:32.368Z,98998.88
2022-10-24T01:34:44.833Z,98988.28
2022-10-24T01:36:56.401Z,98991.06
2022-10-24T01:39:05.412Z,98992.34
2022-10-24T01:41:12.541Z,98999.78
2022-10-24T01:43:19.750Z,99005.38
2022-10-24T01:45:30.593Z,99009.31
2022-10-24T01:47:40.951Z,99003.47
2022-10-24T01:49:53.045Z,99003.47
2022-10-24T01:52:02.175Z,99004.63
2022-10-24T01:54:06.551Z,99004.06
2022-10-24T01:56:10.387Z,99006.72
2022-10-24T01:58:13.976Z,99011.19
2022-10-24T02:00:20.591Z,99009.50
2022-10-24T02:02:30.419Z,99005.88
2022-10-24T02:04:36.070Z,99002.22
2022-10-24T02:06:42.809Z,99008.25
2022-10-24T02:08:52.133Z,99007.94
2022-10-24T02:11:00.292Z,99007.94
2022-10-24T02:13:07.612Z,99010.59
2022-10-24T02:15:17.228Z,99010.19
2022-10-24T02:17:21.012Z,99008.53
2022-10-24T02:19:26.419Z,99014.13
2022-10-24T02:21:38.195Z,99009.13
2022-10-24T02:23:47.425Z,99015.69
2022-10-24T02:25:56.211Z,99013.34
2022-10-24T02:28:06.270Z,99015.88
2022-10-24T02:30:12.837Z,99017.00
2022-10-24T02:32:20.837Z,99013.38
2022-10-24T02:34:29.604Z,99020.47
2022-10-24T02:36:36.613Z,99015.78
2022-10-24T02:38:44.836Z,99015.94
2022-10-24T02:40:51.963Z,99011.91
2022-10-24T02:42:59.073Z,99020.13
2022-10-24T02:45:03.633Z,99012.47
2022-10-24T02:47:10.626Z,99012.75
2022-10-24T02:49:15.042Z,99012.63
2022-10-24T02:51:23.802Z,99006.63
2022-10-24T02:53:28.055Z,99015.41
2022-10-24T02:55:31.786Z,99003.97
2022-10-24T02:57:35.651Z,99011.75
2022-10-24T02:59:39.652Z,99008.28
2022-10-24T03:01:43.370Z,99011.91
2022-10-24T03:03:47.505Z,99004.97
2022-10-24T03:05:51.041Z,99006.09
2022-10-24T03:07:56.514Z,99007.34
2022-10-24T03:10:00.062Z,99018.09
2022-10-24T03:12:04.158Z,99009.41
2022-10-24T03:14:07.993Z,99012.06
2022-10-24T03:16:14.056Z,99010.00
2022-10-24T03:18:18.172Z,99016.53
2022-10-24T03:20:21.893Z,99009.97
2022-10-24T03:22:29.948Z,99014.00
2022-10-24T03:24:44.223Z,99017.06
2022-10-24T03:26:58.617Z,99021.22
2022-10-24T03:29:02.542Z,99011.31
2022-10-24T03:31:06.866Z,99015.34
2022-10-24T03:33:10.821Z,99016.16
2022-10-24T03:35:14.671Z,99016.84
2022-10-24T03:37:18.501Z,99009.72
2022-10-24T03:39:22.268Z,99018.53
2022-10-24T03:41:27.586Z,99011.25
2022-10-24T03:43:31.215Z,99023.38
2022-10-24T03:45:35.171Z,99016.56
2022-10-24T03:47:39.224Z,99015.59
2022-10-24T03:49:43.042Z,99018.69
2022-10-24T03:51:46.810Z,99022.16
2022-10-24T03:53:50.747Z,99016.72
2022-10-24T03:55:55.143Z,99018.38
2022-10-24T03:58:00.438Z,99016.84
2022-10-24T04:00:04.333Z,99020.34
2022-10-24T04:02:10.075Z,99023.69
2022-10-24T04:04:13.904Z,99028.13
2022-10-24T04:06:17.908Z,99033.16
2022-10-24T04:08:22.223Z,99034.53
2022-10-24T04:10:26.108Z,99028.94
2022-10-24T04:12:29.686Z,99037.56
2022-10-24T04:14:35.015Z,99033.78
2022-10-24T04:16:38.732Z,99040.63
2022-10-24T04:18:42.469Z,99035.88
2022-10-24T04:20:46.503Z,99039.09
2022-10-24T04:22:50.706Z,99035.22
2022-10-24T04:24:54.517Z,99032.56
2022-10-24T04:26:58.527Z,99038.84
2022-10-24T04:29:02.563Z,99041.38
2022-10-24T04:31:07.814Z,99040.94
2022-10-24T04:33:12.209Z,99041.91
2022-10-24T04:35:15.863Z,99038.94
2022-10-24T04:37:19.606Z,99041.47
2022-10-24T04:39:23.293Z,99050.25
2022-10-24T04:41:26.922Z,99051.22
2022-10-24T04:43:30.673Z,99045.25
2022-10-24T04:45:34.380Z,99044.03
2022-10-24T04:47:39.765Z,99047.50
2022-10-24T04:49:43.646Z,99049.59
2022-10-24T04:51:47.481Z,99046.41
2022-10-24T04:53:51.737Z,99049.34
2022-10-24T04:55:55.374Z,99057.88
2022-10-24T04:57:59.327Z,99053.03
2022-10-24T05:00:03.129Z,99048.41
2022-10-24T05:02:06.879Z,99049.94
2022-10-24T05:04:12.804Z,99048.97
2022-10-24T05:06:16.864Z,99047.84
2022-10-24T05:08:20.778Z,99054.78
2022-10-24T05:10:24.461Z,99061.63
2022-10-24T05:12:28.036Z,99068.31
2022-10-24T05:14:31.926Z,99058.25
2022-10-24T05:16:35.542Z,99066.72
2022-10-24T05:18:39.381Z,99054.84
2022-10-24T05:20:48.159Z,99062.38
2022-10-24T05:22:52.687Z,99064.06
2022-10-24T05:24:56.674Z,99060.41
2022-10-24T05:27:00.608Z,99068.25
2022-10-24T05:29:04.464Z,99064.88
2022-10-24T05:31:08.378Z,99057.91
2022-10-24T05:33:12.290Z,99065.19
2022-10-24T05:35:16.057Z,99065.19
2022-10-24T05:37:21.417Z,99066.00
2022-10-24T05:39:25.228Z,99072.16
2022-10-24T05:41:28.962Z,99068.50
2022-10-24T05:43:32.936Z,99079.81
2022-10-24T05:45:37.259Z,99084.16
2022-10-24T05:47:40.907Z,99080.50
2022-10-24T05:49:45.140Z,99083.16
2022-10-24T05:51:48.716Z,99091.09
2022-10-24T05:53:53.951Z,99081.34
2022-10-24T05:55:57.630Z,99082.16
2022-10-24T05:58:01.416Z,99076.03
2022-10-24T06:00:07.263Z,99083.00
2022-10-24T06:02:19.622Z,99088.31
2022-10-24T06:04:23.318Z,99090.84
2022-10-24T06:06:27.158Z,99087.19
2022-10-24T06:08:30.833Z,99089.00
2022-10-24T06:10:36.218Z,99085.53
2022-10-24T06:12:40.943Z,99091.81
2022-10-24T06:14:44.890Z,99091.81
2022-10-24T06:16:48.488Z,99090.94
2022-10-24T06:18:52.547Z,99096.25
2022-10-24T06:20:56.390Z,99087.78
2022-10-24T06:22:59.954Z,99095.88
2022-10-24T06:25:03.635Z,99096.03
2022-10-24T06:27:08.895Z,99094.34
2022-10-24T06:29:12.803Z,99098.94
2022-10-24T06:31:16.841Z,99106.22
2022-10-24T06:33:20.378Z,99102.72
2022-10-24T06:35:24.093Z,99101.91
2022-10-24T06:37:27.842Z,99101.19
2022-10-24T06:39:31.637Z,99106.50
2022-10-24T06:41:34.920Z,99096.88
2022-10-24T06:43:41.194Z,99107.50
2022-10-24T06:45:44.417Z,99111.13
2022-10-24T06:47:51.793Z,99108.47
2022-10-24T06:49:57.268Z,99105.09
2022-10-24T06:52:00.544Z,99106.13
2022-10-24T06:54:03.925Z,99110.72
2022-10-24T06:56:08.047Z,99112.69
2022-10-24T06:58:11.329Z,99112.69
2022-10-24T07:00:16.647Z,99108.34
2022-10-24T07:02:20.124Z,99115.47
2022-10-24T07:04:23.604Z,99118.94
2022-10-24T07:06:29.008Z,99118.25
2022-10-24T07:08:32.510Z,99118.94
2022-10-24T07:10:36.010Z,99126.91
2022-10-24T07:12:39.507Z,99126.75
2022-10-24T07:14:43.160Z,99139.84
2022-10-24T07:16:48.183Z,99131.63
2022-10-24T07:18:51.976Z,99133.16
2022-10-24T07:20:55.744Z,99133.56
2022-10-24T07:22:59.387Z,99140.25
2022-10-24T07:25:03.158Z,99133.81
2022-10-24T07:27:06.782Z,99137.84
2022-10-24T07:29:10.714Z,99140.22
2022-10-24T07:31:15.260Z,99151.38
2022-10-24T07:33:20.401Z,99144.94
2022-10-24T07:35:24.226Z,99148.28
2022-10-24T07:37:27.915Z,99154.13
2022-10-24T07:39:31.686Z,99157.34
2022-10-24T07:41:38.185Z,99153.28
2022-10-24T07:43:42.025Z,99157.97
2022-10-24T07:45:49.171Z,99154.03
2022-10-24T07:47:55.540Z,99156.13
2022-10-24T07:50:00.646Z,99163.34
2022-10-24T07:52:04.371Z,99162.06
2022-10-24T07:54:08.326Z,99170.41
2022-10-24T07:56:14.623Z,99165.09
2022-10-24T07:58:18.263Z,99170.41
2022-10-24T08:00:22.648Z,99169.44
2022-10-24T08:02:26.351Z,99172.91
2022-10-24T08:04:30.660Z,99180.88
2022-10-24T08:06:36.109Z,99182.72
2022-10-24T08:08:40.539Z,99186.91
2022-10-24T08:10:44.520Z,99187.72
2022-10-24T08:12:48.465Z,99189.69
2022-10-24T08:14:52.471Z,99196.69
2022-10-24T08:16:56.405Z,99195.84
2022-10-24T08:19:00.189Z,99199.34
2022-10-24T08:21:06.711Z,99204.66
2022-10-24T08:23:11.981Z,99203.13
2022-10-24T08:25:15.545Z,99204.78
2022-10-24T08:27:19.355Z,99219.88
2022-10-24T08:29:23.899Z,99212.88
2022-10-24T08:31:27.994Z,99224.34
2022-10-24T08:33:31.727Z,99228.81
2022-10-24T08:35:35.012Z,99222.81
2022-10-24T08:37:39.519Z,99228.13
2022-10-24T08:39:44.773Z,99224.63
2022-10-24T08:41:53.717Z,99224.63
2022-10-24T08:44:01.152Z,99235.09
2022-10-24T08:46:12.005Z,99236.78
2022-10-24T08:48:23.286Z,99242.06
2022-10-24T08:50:30.480Z,99241.09
2022-10-24T08:52:38.370Z,99244.56
2022-10-24T08:54:46.292Z,99244.47
2022-10-24T08:56:50.146Z,99241.81
2022-10-24T08:58:53.689Z,99251.41
2022-10-24T09:01:00.818Z,99254.06
2022-10-24T09:03:11.641Z,99256.47
2022-10-24T09:05:24.344Z,99256.97
2022-10-24T09:07:28.548Z,99262.84
2022-10-24T09:09:37.576Z,99267.56
2022-10-24T09:11:49.447Z,99272.59
2022-10-24T09:13:53.375Z,99273.97
2022-10-24T09:15:57.228Z,99280.94
2022-10-24T09:18:01.281Z,99290.44
2022-10-24T09:20:20.448Z,99286.50
2022-10-24T09:22:25.475Z,99291.53
2022-10-24T09:24:39.272Z,99294.59
2022-10-24T09:26:46.408Z,99292.34
2022-10-24T09:28:51.020Z,99290.09
2022-10-24T09:30:54.819Z,99287.81
2022-10-24T09:33:01.181Z,99285.53
2022-10-24T09:35:08.005Z,99285.78
2022-10-24T09:37:44.699Z,99287.38
2022-10-24T09:40:10.063Z,99296.16
2022-10-24T09:42:24.495Z,99297.22
2022-10-24T09:44:35.614Z,99293.25
2022-10-24T09:46:46.140Z,99298.13
2022-10-24T09:48:53.797Z,99304.69
2022-10-24T09:50:58.802Z,99300.84
2022-10-24T09:53:06.930Z,99307.84
2022-10-24T09:55:19.269Z,99307.84
2022-10-24T09:57:26.838Z,99315.22
2022-10-24T09:59:41.769Z,99310.25
2022-10-24T10:01:45.894Z,99310.25
2022-10-24T10:04:08.424Z,99317.25
2022-10-24T10:06:17.519Z,99320.91
2022-10-24T10:08:23.753Z,99321.91
2022-10-24T10:10:35.974Z,99325.56
2022-10-24T10:12:43.542Z,99318.41
2022-10-24T10:14:47.262Z,99323.56
2022-10-24T10:17:01.865Z,99320.78
2022-10-24T10:19:14.828Z,99321.00
2022-10-24T10:21:21.210Z,99320.91
2022-10-24T10:23:28.530Z,99321.72
2022-10-24T10:25:34.550Z,99317.75
2022-10-24T10:27:41.879Z,99324.84
2022-10-24T10:29:45.778Z,99330.06
2022-10-24T10:31:50.930Z,99329.28
2022-10-24T10:34:14.982Z,99336.00
2022-10-24T10:36:25.629Z,99338.56
2022-10-24T10:38:55.468Z,99343.25
2022-10-24T10:41:04.918Z,99352.44
2022-10-24T10:43:31.387Z,99360.44
2022-10-24T10:45:42.065Z,99356.75
2022-10-24T10:47:59.870Z,99360.88
2022-10-24T10:52:26.972Z,99363.69
2022-10-24T10:54:55.226Z,99359.03
2022-10-24T10:57:04.643Z,99363.88
2022-10-24T10:59:25.866Z,99362.56
2022-10-24T11:01:45.711Z,99352.16
2022-10-24T11:03:57.879Z,99363.88
2022-10-24T11:06:12.291Z,99360.88
2022-10-24T11:08:29.460Z,99366.53
2022-10-24T11:10:38.892Z,99364.84
2022-10-24T11:12:45.314Z,99362.84
2022-10-24T11:14:54.145Z,99361.34
2022-10-24T11:17:03.658Z,99363.75
2022-10-24T11:19:14.101Z,99366.66
2022-10-24T11:21:21.457Z,99365.03
2022-10-24T11:23:31.453Z,99366.03
2022-10-24T11:25:40.234Z,99365.41
2022-10-24T11:27:51.673Z,99360.72
2022-10-24T11:30:00.479Z,99366.91
2022-10-24T11:32:09.137Z,99366.41
2022-10-24T11:34:17.413Z,99364.72
2022-10-24T11:36:28.534Z,99366.91
2022-10-24T11:38:33.926Z,99373.59
2022-10-24T11:40:41.263Z,99365.06
2022-10-24T11:42:52.814Z,99362.75
2022-10-24T11:45:06.125Z,99362.06
2022-10-24T11:47:17.916Z,99369.59
2022-10-24T11:49:27.489Z,99365.25
2022-10-24T11:51:38.781Z,99363.38
2022-10-24T11:53:54.017Z,99368.41
2022-10-24T11:56:04.192Z,99370.56
2022-10-24T11:58:16.213Z,99365.59
2022-10-24T12:00:26.223Z,99369.41
2022-10-24T12:03:09.887Z,99377.59
2022-10-24T12:05:31.416Z,99374.56
2022-10-24T12:08:23.458Z,99379.38
2022-10-24T12:10:44.190Z,99379.38
2022-10-24T12:13:07.149Z,99388.69
2022-10-24T12:15:32.250Z,99387.63
2022-10-24T12:17:59.262Z,99389.72
2022-10-24T12:20:03.803Z,99396.38
2022-10-24T12:22:07.921Z,99386.38
2022-10-24T12:24:23.170Z,99391.50
2022-10-24T12:26:29.760Z,99392.66
2022-10-24T12:28:34.076Z,99400.44
2022-10-24T12:30:39.614Z,99404.59
2022-10-24T12:32:47.535Z,99393.72
2022-10-24T12:35:25.212Z,99394.34
2022-10-24T12:37:36.655Z,99406.47
2022-10-24T12:39:45.816Z,99398.28
2022-10-24T12:41:51.561Z,99395.31
2022-10-24T12:44:46.569Z,99396.34
2022-10-24T12:46:57.290Z,99399.69
2022-10-24T12:49:27.593Z,99396.88
2022-10-24T12:51:32.279Z,99405.00
2022-10-24T12:53:40.284Z,99401.69
2022-10-24T12:56:07.323Z,99399.00
2022-10-24T12:58:24.448Z,99394.34
2022-10-24T13:00:30.960Z,99397.38
2022-10-24T13:03:03.234Z,99397.06
2022-10-24T13:05:19.327Z,99401.06
2022-10-24T13:07:45.060Z,99386.09
2022-10-24T13:10:03.470Z,99394.91
2022-10-24T13:12:20.966Z,99389.09
2022-10-24T13:14:39.457Z,99387.94
2022-10-24T13:16:53.201Z,99386.44
2022-10-24T13:19:11.499Z,99382.75
2022-10-24T13:21:23.732Z,99384.22
2022-10-24T13:23:29.603Z,99392.69
2022-10-24T13:25:37.856Z,99383.19
2022-10-24T13:27:41.457Z,99382.66
2022-10-24T13:30:24.182Z,99385.66
2022-10-24T13:32:35.214Z,99386.84
2022-10-24T13:34:45.254Z,99382.88
2022-10-24T13:36:52.777Z,99394.72
2022-10-24T13:38:59.324Z,99389.75
2022-10-24T13:41:05.033Z,99388.97
2022-10-24T13:43:19.788Z,99396.16
2022-10-24T13:45:29.658Z,99393.84
2022-10-24T13:47:37.725Z,99385.53
2022-10-24T13:49:52.250Z,99390.56
2022-10-24T13:51:58.364Z,99385.72
2022-10-24T13:54:09.609Z,99399.41
2022-10-24T13:56:14.673Z,99386.44
2022-10-24T13:58:21.108Z,99388.78
2022-10-24T14:00:27.629Z,99393.28
2022-10-24T14:02:34.508Z,99385.28
2022-10-24T14:04:39.967Z,99385.59
2022-10-24T14:06:45.861Z,99388.41
2022-10-24T14:09:02.743Z,99389.56
2022-10-24T14:11:14.309Z,99386.91
2022-10-24T14:13:20.023Z,99391.56
2022-10-24T14:15:25.917Z,99397.72
2022-10-24T14:17:31.044Z,99391.56
2022-10-24T14:19:38.426Z,99413.88
2022-10-24T14:21:46.230Z,99399.69
2022-10-24T14:23:58.578Z,99413.16
2022-10-24T14:26:04.892Z,99420.41
2022-10-24T14:28:15.969Z,99413.38
2022-10-24T14:30:22.869Z,99427.50
2022-10-24T14:32:28.311Z,99436.75
2022-10-24T14:34:36.276Z,99426.47
2022-10-24T14:36:40.986Z,99424.06
2022-10-24T14:38:46.476Z,99420.38
2022-10-24T14:41:01.175Z,99423.03
2022-10-24T14:43:16.076Z,99427.34
2022-10-24T14:45:27.582Z,99419.19
2022-10-24T14:47:33.063Z,99423.84
2022-10-24T14:49:38.336Z,99424.28
2022-10-24T14:51:43.059Z,99430.25
2022-10-24T14:53:50.379Z,99423.56
2022-10-24T14:55:55.820Z,99427.81
2022-10-24T14:57:59.416Z,99425.28
2022-10-24T15:00:08.193Z,99428.09
2022-10-24T15:02:22.346Z,99421.09
2022-10-24T15:04:37.809Z,99428.25
2022-10-24T15:06:42.859Z,99429.38
2022-10-24T15:08:51.319Z,99425.06
2022-10-24T15:11:18.473Z,99428.00
2022-10-24T15:13:25.559Z,99427.34
2022-10-24T15:15:34.264Z,99432.97
2022-10-24T15:17:41.020Z,99433.25
2022-10-24T15:19:45.849Z,99428.56
2022-10-24T15:21:49.870Z,99439.34
2022-10-24T15:23:57.385Z,99439.50
2022-10-24T15:26:09.379Z,99440.47
2022-10-24T15:28:54.135Z,99441.47
2022-10-24T15:30:58.005Z,99439.78
2022-10-24T15:33:03.786Z,99440.91
2022-10-24T15:35:08.567Z,99444.59
2022-10-24T15:37:19.793Z,99449.19
2022-10-24T15:39:26.413Z,99451.19
2022-10-24T15:41:30.554Z,99454.81
2022-10-24T15:43:34.947Z,99453.16
2022-10-24T15:45:38.768Z,99449.66
2022-10-24T15:47:42.434Z,99455.81
2022-10-24T15:49:45.991Z,99452.00
2022-10-24T15:51:51.009Z,99466.13
2022-10-24T15:53:55.420Z,99469.66
2022-10-24T15:56:00.841Z,99474.00
2022-10-24T15:58:04.618Z,99476.66
2022-10-24T16:00:10.096Z,99477.63
2022-10-24T16:02:21.167Z,99476.25
2022-10-24T16:04:26.827Z,99475.72
2022-10-24T16:06:31.392Z,99487.47
2022-10-24T16:08:36.461Z,99492.94
2022-10-24T16:10:40.854Z,99491.41
2022-10-24T16:12:47.171Z,99489.88
2022-10-24T16:14:52.065Z,99489.22
2022-10-24T16:16:56.578Z,99488.50
2022-10-24T16:19:00.377Z,99498.63
2022-10-24T16:21:05.256Z,99496.22
2022-10-24T16:23:10.532Z,99501.03
2022-10-24T16:25:17.281Z,99490.53
2022-10-24T16:27:21.538Z,99499.63
2022-10-24T16:29:27.130Z,99497.28
2022-10-24T16:31:31.088Z,99504.56
2022-10-24T16:33:35.635Z,99504.69
2022-10-24T16:35:41.367Z,99510.31
2022-10-24T16:38:54.578Z,99508.06
2022-10-24T16:40:58.902Z,99514.66
2022-10-24T16:43:02.478Z,99523.75
2022-10-24T16:45:08.877Z,99518.06
2022-10-24T16:47:12.877Z,99520.97
2022-10-24T16:49:16.880Z,99524.09
2022-10-24T16:51:27.921Z,99526.88
2022-10-24T16:53:32.383Z,99531.50
2022-10-24T16:55:36.509Z,99528.31
2022-10-24T16:57:41.881Z,99530.09
2022-10-24T16:59:45.791Z,99533.88
2022-10-24T17:01:51.502Z,99524.38
2022-10-24T17:03:56.190Z,99529.97
2022-10-24T17:06:00.852Z,99530.28
2022-10-24T17:08:05.329Z,99537.53
2022-10-24T17:10:12.153Z,99544.00
2022-10-24T17:12:20.316Z,99545.09
2022-10-24T17:14:25.084Z,99546.38
2022-10-24T17:16:29.273Z,99545.63
2022-10-24T17:18:34.893Z,99553.72
2022-10-24T17:20:39.615Z,99551.22
2022-10-24T17:22:47.442Z,99553.88
2022-10-24T17:24:52.202Z,99559.34
2022-10-24T17:26:57.112Z,99563.78
2022-10-24T17:29:02.755Z,99566.72
2022-10-24T17:31:08.295Z,99565.19
2022-10-24T17:33:14.071Z,99576.78
2022-10-24T17:35:23.476Z,99577.78
2022-10-24T17:37:40.801Z,99582.38
2022-10-24T17:39:51.172Z,99579.88
2022-10-24T17:41:55.665Z,99587.81
2022-10-24T17:44:01.814Z,99587.16
2022-10-24T17:46:06.854Z,99592.56
2022-10-24T17:48:13.237Z,99590.91
2022-10-24T17:50:20.749Z,99601.53
2022-10-24T17:52:26.041Z,99593.72
2022-10-24T17:54:30.680Z,99596.47
2022-10-24T17:56:37.687Z,99601.66
2022-10-24T17:58:42.754Z,99603.63
2022-10-24T18:00:46.923Z,99606.25
2022-10-24T18:02:52.850Z,99605.56
2022-10-24T18:04:57.386Z,99607.53
2022-10-24T18:07:02.502Z,99608.50
2022-10-24T18:09:06.279Z,99606.84
2022-10-24T18:11:10.539Z,99622.75
2022-10-24T18:13:14.254Z,99621.06
2022-10-24T18:15:21.225Z,99623.88
2022-10-24T18:17:24.930Z,99631.84
2022-10-24T18:19:28.775Z,99638.94
2022-10-24T18:21:32.570Z,99631.13
2022-10-24T18:23:38.611Z,99640.91
2022-10-24T18:25:42.978Z,99643.41
2022-10-24T18:27:46.909Z,99644.53
2022-10-24T18:29:50.613Z,99641.88
2022-10-24T18:31:54.348Z,99647.19
2022-10-24T18:34:04.735Z,99649.84
2022-10-24T18:36:12.632Z,99659.63
2022-10-24T18:38:19.023Z,99652.63
2022-10-24T18:40:25.563Z,99656.25
2022-10-24T18:42:38.978Z,99654.41
2022-10-24T18:44:48.741Z,99662.38
2022-10-24T18:46:56.122Z,99656.38
2022-10-24T18:49:00.782Z,99659.03
2022-10-24T18:51:05.578Z,99662.53
2022-10-24T18:53:21.499Z,99666.88
2022-10-24T18:55:30.546Z,99669.66
2022-10-24T18:57:37.161Z,99663.53
2022-10-24T18:59:41.927Z,99661.69
2022-10-24T19:02:01.450Z,99666.88
2022-10-24T19:04:17.728Z,99676.66
2022-10-24T19:06:26.318Z,99673.84
2022-10-24T19:08:31.307Z,99674.00
2022-10-24T19:10:37.118Z,99680.28
2022-10-24T19:12:41.490Z,99680.28
2022-10-24T19:14:46.805Z,99680.28
2022-10-24T19:16:54.838Z,99682.09
2022-10-24T19:19:03.360Z,99679.44
2022-10-24T19:21:08.563Z,99680.28
2022-10-24T19:23:14.339Z,99681.97
2022-10-24T19:25:20.647Z,99684.63
2022-10-24T19:27:28.128Z,99685.59
2022-10-24T19:29:33.469Z,99699.69
2022-10-24T19:31:39.483Z,99696.19
2022-10-24T19:33:44.510Z,99701.50
2022-10-24T19:35:49.472Z,99693.53
2022-10-24T19:37:53.761Z,99700.53
2022-10-24T19:40:00.110Z,99704.84
2022-10-24T19:42:05.877Z,99703.06
2022-10-24T19:44:12.036Z,99703.06
2022-10-24T19:46:20.531Z,99701.22
2022-10-24T19:48:26.739Z,99700.41
2022-10-24T19:50:31.993Z,99710.06
2022-10-24T19:52:37.567Z,99707.41
2022-10-24T19:54:42.557Z,99711.84
2022-10-24T19:56:47.906Z,99721.63
2022-10-24T19:58:52.594Z,99726.09
2022-10-24T20:01:07.296Z,99728.75
2022-10-24T20:03:12.117Z,99735.72
2022-10-24T20:05:17.988Z,99730.44
2022-10-24T20:07:23.923Z,99726.09
2022-10-24T20:09:32.040Z,99734.03
2022-10-24T20:11:37.143Z,99745.53
2022-10-24T20:13:41.825Z,99741.19
2022-10-24T20:15:46.023Z,99742.72
2022-10-24T20:17:51.622Z,99741.50
2022-10-24T20:19:55.701Z,99746.81
2022-10-24T20:22:02.314Z,99756.31
2022-10-24T20:24:07.970Z,99757.00
2022-10-24T20:26:15.382Z,99760.53
2022-10-24T20:28:19.447Z,99762.91
2022-10-24T20:30:23.457Z,99763.72
2022-10-24T20:32:27.602Z,99769.63
2022-10-24T20:34:32.886Z,99764.16
2022-10-24T20:36:37.899Z,99768.50
2022-10-24T20:38:41.953Z,99766.69
2022-10-24T20:40:45.850Z,99775.66
2022-10-24T20:42:49.971Z,99772.28
2022-10-24T20:44:53.831Z,99775.22
2022-10-24T20:46:59.396Z,99776.16
2022-10-24T20:49:03.703Z,99777.41
2022-10-24T20:51:11.780Z,99782.03
2022-10-24T20:53:16.176Z,99784.78
2022-10-24T20:55:31.809Z,99780.63
2022-10-24T20:57:43.872Z,99780.84
2022-10-24T20:59:47.921Z,99794.00
2022-10-24T21:01:51.906Z,99780.84
2022-10-24T21:03:58.327Z,99786.16
2022-10-24T21:06:02.195Z,99795.94
2022-10-24T21:08:08.197Z,99802.38
2022-10-24T21:10:11.855Z,99804.19
2022-10-24T21:12:15.810Z,99804.28
2022-10-24T21:14:21.086Z,99804.28
2022-10-24T21:16:25.718Z,99803.31
2022-10-24T21:18:29.848Z,99812.00
2022-10-24T21:20:34.719Z,99808.50
2022-10-24T21:22:38.860Z,99812.97
2022-10-24T21:24:44.735Z,99821.91
2022-10-24T21:26:49.100Z,99823.72
2022-10-24T21:28:59.559Z,99826.53
2022-10-24T21:31:15.429Z,99838.09
2022-10-24T21:33:19.969Z,99836.41
2022-10-24T21:35:24.301Z,99840.03
2022-10-24T21:37:28.898Z,99846.34
2022-10-24T21:39:33.476Z,99846.47
2022-10-24T21:41:39.249Z,99843.81
2022-10-24T21:43:44.714Z,99849.22
2022-10-24T21:45:48.804Z,99858.19
2022-10-24T21:47:52.956Z,99858.19
2022-10-24T21:49:57.463Z,99859.16
2022-10-24T21:52:02.295Z,99863.72
2022-10-24T21:54:09.550Z,99862.06
2022-10-24T21:56:16.635Z,99864.72
2022-10-24T21:58:22.347Z,99864.84
2022-10-24T22:00:26.576Z,99868.47
2022-10-24T22:02:30.890Z,99870.25
2022-10-24T22:04:34.871Z,99877.38
2022-10-24T22:06:39.134Z,99881.13
2022-10-24T22:08:43.617Z,99880.44
2022-10-24T22:10:47.762Z,99883.22
2022-10-24T22:12:51.761Z,99883.31
2022-10-24T22:14:57.601Z,99886.97
2022-10-24T22:17:01.680Z,99885.28
2022-10-24T22:19:07.224Z,99890.72
2022-10-24T22:21:22.518Z,99886.25
2022-10-24T22:23:27.133Z,99892.50
2022-10-24T22:25:30.923Z,99888.06
2022-10-24T22:27:35.066Z,99883.72
2022-10-24T22:29:38.868Z,99897.00
2022-10-24T22:31:45.212Z,99902.28
2022-10-24T22:33:49.060Z,99896.25
2022-10-24T22:36:00.455Z,99898.06
2022-10-24T22:38:05.053Z,99902.69
2022-10-24T22:40:21.384Z,99906.31
2022-10-24T22:42:25.746Z,99899.31
2022-10-24T22:44:30.032Z,99901.25
2022-10-24T22:47:00.439Z,99911.00
2022-10-24T22:51:17.716Z,99908.47
2022-10-24T22:53:25.245Z,99917.41
2022-10-24T22:55:34.355Z,99923.78
2022-10-24T22:57:38.600Z,99922.00
2022-10-24T22:59:42.955Z,99922.97
2022-10-24T23:02:01.166Z,99929.09
2022-10-24T23:04:17.066Z,99931.06
2022-10-24T23:06:28.425Z,99940.84
2022-10-24T23:08:36.975Z,99939.13
2022-10-24T23:10:41.282Z,99943.59
2022-10-24T23:12:45.627Z,99943.72
2022-10-24T23:14:51.051Z,99940.22
2022-10-24T23:16:59.612Z,99945.66
2022-10-24T23:19:07.675Z,99945.78
2022-10-24T23:21:20.434Z,99951.91
2022-10-24T23:23:29.207Z,99950.22
2022-10-24T23:25:34.000Z,99955.53
2022-10-24T23:27:39.994Z,99951.22
2022-10-24T23:29:48.257Z,99961.09
2022-10-24T23:31:52.351Z,99968.34
2022-10-24T23:33:58.150Z,99954.59
2022-10-24T23:36:02.171Z,99961.56
2022-10-24T23:38:06.347Z,99955.44
2022-10-24T23:40:22.761Z,99961.56
2022-10-24T23:42:27.255Z,99959.91
2022-10-24T23:44:31.499Z,99964.22
2022-10-24T23:46:39.238Z,99970.53
2022-10-24T23:48:52.403Z,99967.13
2022-10-24T23:51:04.769Z,99961.81
2022-10-24T23:53:21.992Z,99969.78
2022-10-24T23:55:26.318Z,99961.97
2022-10-24T23:57:30.404Z,99968.22
2022-10-24T23:59:34.069Z,99971.84
